sensor_id;sensor_type;location;lat;lon;timestamp;P1;durP1;ratioP1;P2;durP2;ratioP2
52564;SDS011;38460;53.106;7.004;2024-02-26T00:01:26;21.40;;;11.48;;
52564;SDS011;38460;53.106;7.004;2024-02-26T00:03:52;18.38;;;10.98;;
52564;SDS011;38460;53.106;7.004;2024-02-26T00:06:19;21.05;;;11.63;;
52564;SDS011;38460;53.106;7.004;2024-02-26T00:08:45;22.15;;;12.40;;
52564;SDS011;38460;53.106;7.004;2024-02-26T00:11:10;16.25;;;10.80;;
52564;SDS011;38460;53.106;7.004;2024-02-26T00:13:36;21.52;;;12.48;;
52564;SDS011;38460;53.106;7.004;2024-02-26T00:16:02;22.83;;;12.82;;
52564;SDS011;38460;53.106;7.004;2024-02-26T00:18:32;21.75;;;11.98;;
52564;SDS011;38460;53.106;7.004;2024-02-26T00:20:58;20.60;;;11.43;;
52564;SDS011;38460;53.106;7.004;2024-02-26T00:23:24;25.17;;;13.35;;
52564;SDS011;38460;53.106;7.004;2024-02-26T00:25:50;26.23;;;13.93;;
52564;SDS011;38460;53.106;7.004;2024-02-26T00:28:15;23.17;;;12.73;;
52564;SDS011;38460;53.106;7.004;2024-02-26T00:30:41;23.95;;;13.38;;
52564;SDS011;38460;53.106;7.004;2024-02-26T00:33:07;21.27;;;12.85;;
52564;SDS011;38460;53.106;7.004;2024-02-26T00:35:33;23.77;;;13.57;;
52564;SDS011;38460;53.106;7.004;2024-02-26T00:37:58;25.00;;;14.07;;
52564;SDS011;38460;53.106;7.004;2024-02-26T00:40:26;26.17;;;13.73;;
52564;SDS011;38460;53.106;7.004;2024-02-26T00:42:52;29.73;;;16.08;;
52564;SDS011;38460;53.106;7.004;2024-02-26T00:45:19;30.00;;;15.40;;
52564;SDS011;38460;53.106;7.004;2024-02-26T00:47:44;25.95;;;14.98;;
52564;SDS011;38460;53.106;7.004;2024-02-26T00:50:12;31.70;;;16.98;;
52564;SDS011;38460;53.106;7.004;2024-02-26T00:52:38;33.25;;;18.10;;
52564;SDS011;38460;53.106;7.004;2024-02-26T00:55:03;31.83;;;19.23;;
52564;SDS011;38460;53.106;7.004;2024-02-26T00:57:30;37.22;;;19.58;;
52564;SDS011;38460;53.106;7.004;2024-02-26T00:59:55;33.92;;;20.15;;
52564;SDS011;38460;53.106;7.004;2024-02-26T01:02:22;33.50;;;19.63;;
52564;SDS011;38460;53.106;7.004;2024-02-26T01:04:48;37.13;;;19.70;;
52564;SDS011;38460;53.106;7.004;2024-02-26T01:07:13;33.17;;;19.23;;
52564;SDS011;38460;53.106;7.004;2024-02-26T01:09:39;38.10;;;21.35;;
52564;SDS011;38460;53.106;7.004;2024-02-26T01:12:05;35.72;;;19.88;;
52564;SDS011;38460;53.106;7.004;2024-02-26T01:14:31;32.72;;;18.77;;
52564;SDS011;38460;53.106;7.004;2024-02-26T01:16:56;37.65;;;21.10;;
52564;SDS011;38460;53.106;7.004;2024-02-26T01:19:22;34.60;;;20.58;;
52564;SDS011;38460;53.106;7.004;2024-02-26T01:21:48;41.80;;;22.23;;
52564;SDS011;38460;53.106;7.004;2024-02-26T01:24:14;41.45;;;22.40;;
52564;SDS011;38460;53.106;7.004;2024-02-26T01:26:40;39.42;;;24.00;;
52564;SDS011;38460;53.106;7.004;2024-02-26T01:29:06;43.78;;;26.38;;
52564;SDS011;38460;53.106;7.004;2024-02-26T01:31:32;40.20;;;26.15;;
52564;SDS011;38460;53.106;7.004;2024-02-26T01:33:58;42.63;;;24.50;;
52564;SDS011;38460;53.106;7.004;2024-02-26T01:36:23;44.83;;;25.05;;
52564;SDS011;38460;53.106;7.004;2024-02-26T01:38:50;40.65;;;23.10;;
52564;SDS011;38460;53.106;7.004;2024-02-26T01:41:16;39.80;;;22.63;;
52564;SDS011;38460;53.106;7.004;2024-02-26T01:43:42;42.90;;;24.05;;
52564;SDS011;38460;53.106;7.004;2024-02-26T01:46:11;39.63;;;20.83;;
52564;SDS011;38460;53.106;7.004;2024-02-26T01:48:39;38.60;;;22.27;;
52564;SDS011;38460;53.106;7.004;2024-02-26T01:51:06;46.28;;;24.58;;
52564;SDS011;38460;53.106;7.004;2024-02-26T01:53:32;43.90;;;23.17;;
52564;SDS011;38460;53.106;7.004;2024-02-26T01:55:58;39.75;;;22.75;;
52564;SDS011;38460;53.106;7.004;2024-02-26T01:58:25;43.83;;;23.50;;
52564;SDS011;38460;53.106;7.004;2024-02-26T02:00:50;41.40;;;24.52;;
52564;SDS011;38460;53.106;7.004;2024-02-26T02:03:16;39.08;;;22.58;;
52564;SDS011;38460;53.106;7.004;2024-02-26T02:05:42;40.78;;;22.90;;
52564;SDS011;38460;53.106;7.004;2024-02-26T02:08:09;36.72;;;21.42;;
52564;SDS011;38460;53.106;7.004;2024-02-26T02:10:42;46.08;;;23.02;;
52564;SDS011;38460;53.106;7.004;2024-02-26T02:13:08;38.88;;;20.88;;
52564;SDS011;38460;53.106;7.004;2024-02-26T02:15:34;42.33;;;23.40;;
52564;SDS011;38460;53.106;7.004;2024-02-26T02:18:00;41.08;;;23.85;;
52564;SDS011;38460;53.106;7.004;2024-02-26T02:20:35;36.90;;;21.48;;
52564;SDS011;38460;53.106;7.004;2024-02-26T02:23:01;41.80;;;24.05;;
52564;SDS011;38460;53.106;7.004;2024-02-26T02:25:28;35.83;;;21.67;;
52564;SDS011;38460;53.106;7.004;2024-02-26T02:27:54;37.72;;;21.30;;
52564;SDS011;38460;53.106;7.004;2024-02-26T02:30:29;36.33;;;21.98;;
52564;SDS011;38460;53.106;7.004;2024-02-26T02:32:58;35.30;;;20.08;;
52564;SDS011;38460;53.106;7.004;2024-02-26T02:35:24;27.75;;;18.15;;
52564;SDS011;38460;53.106;7.004;2024-02-26T02:37:54;29.27;;;17.52;;
52564;SDS011;38460;53.106;7.004;2024-02-26T02:40:21;31.73;;;18.63;;
52564;SDS011;38460;53.106;7.004;2024-02-26T02:42:46;31.08;;;19.08;;
52564;SDS011;38460;53.106;7.004;2024-02-26T02:45:12;26.05;;;16.92;;
52564;SDS011;38460;53.106;7.004;2024-02-26T02:47:38;29.13;;;18.08;;
52564;SDS011;38460;53.106;7.004;2024-02-26T02:50:04;25.00;;;16.52;;
52564;SDS011;38460;53.106;7.004;2024-02-26T02:52:30;26.50;;;16.30;;
52564;SDS011;38460;53.106;7.004;2024-02-26T02:54:56;26.95;;;16.55;;
52564;SDS011;38460;53.106;7.004;2024-02-26T02:57:21;27.75;;;16.17;;
52564;SDS011;38460;53.106;7.004;2024-02-26T02:59:47;22.05;;;13.70;;
52564;SDS011;38460;53.106;7.004;2024-02-26T03:02:13;22.52;;;14.45;;
52564;SDS011;38460;53.106;7.004;2024-02-26T03:04:39;21.60;;;14.25;;
52564;SDS011;38460;53.106;7.004;2024-02-26T03:07:05;22.00;;;13.90;;
52564;SDS011;38460;53.106;7.004;2024-02-26T03:09:30;21.73;;;12.82;;
52564;SDS011;38460;53.106;7.004;2024-02-26T03:11:57;19.65;;;12.43;;
52564;SDS011;38460;53.106;7.004;2024-02-26T03:14:23;19.75;;;11.18;;
52564;SDS011;38460;53.106;7.004;2024-02-26T03:16:49;19.45;;;12.15;;
52564;SDS011;38460;53.106;7.004;2024-02-26T03:19:15;13.57;;;10.02;;
52564;SDS011;38460;53.106;7.004;2024-02-26T03:21:43;16.48;;;10.57;;
52564;SDS011;38460;53.106;7.004;2024-02-26T03:24:09;14.88;;;10.30;;
52564;SDS011;38460;53.106;7.004;2024-02-26T03:26:36;17.17;;;10.20;;
52564;SDS011;38460;53.106;7.004;2024-02-26T03:29:02;15.55;;;10.52;;
52564;SDS011;38460;53.106;7.004;2024-02-26T03:31:28;17.40;;;10.90;;
52564;SDS011;38460;53.106;7.004;2024-02-26T03:33:54;15.13;;;10.10;;
52564;SDS011;38460;53.106;7.004;2024-02-26T03:36:19;14.75;;;9.45;;
52564;SDS011;38460;53.106;7.004;2024-02-26T03:38:47;15.25;;;10.00;;
52564;SDS011;38460;53.106;7.004;2024-02-26T03:41:15;16.98;;;10.48;;
52564;SDS011;38460;53.106;7.004;2024-02-26T03:43:41;15.85;;;10.27;;
52564;SDS011;38460;53.106;7.004;2024-02-26T03:46:07;15.88;;;10.45;;
52564;SDS011;38460;53.106;7.004;2024-02-26T03:48:34;15.30;;;9.23;;
52564;SDS011;38460;53.106;7.004;2024-02-26T03:51:00;14.65;;;9.25;;
52564;SDS011;38460;53.106;7.004;2024-02-26T03:53:26;12.88;;;8.55;;
52564;SDS011;38460;53.106;7.004;2024-02-26T03:55:51;15.05;;;9.80;;
52564;SDS011;38460;53.106;7.004;2024-02-26T03:58:18;12.48;;;8.10;;
52564;SDS011;38460;53.106;7.004;2024-02-26T04:00:43;12.55;;;7.45;;
52564;SDS011;38460;53.106;7.004;2024-02-26T04:03:09;9.95;;;6.70;;
52564;SDS011;38460;53.106;7.004;2024-02-26T04:05:35;11.63;;;7.60;;
52564;SDS011;38460;53.106;7.004;2024-02-26T04:08:01;9.65;;;7.32;;
52564;SDS011;38460;53.106;7.004;2024-02-26T04:10:29;11.80;;;7.28;;
52564;SDS011;38460;53.106;7.004;2024-02-26T04:12:55;13.77;;;6.68;;
52564;SDS011;38460;53.106;7.004;2024-02-26T04:15:20;11.05;;;6.15;;
52564;SDS011;38460;53.106;7.004;2024-02-26T04:17:46;9.85;;;6.60;;
52564;SDS011;38460;53.106;7.004;2024-02-26T04:20:15;9.80;;;7.05;;
52564;SDS011;38460;53.106;7.004;2024-02-26T04:22:42;10.35;;;6.32;;
52564;SDS011;38460;53.106;7.004;2024-02-26T04:25:08;10.82;;;6.82;;
52564;SDS011;38460;53.106;7.004;2024-02-26T04:27:33;7.97;;;5.53;;
52564;SDS011;38460;53.106;7.004;2024-02-26T04:29:59;9.93;;;6.95;;
52564;SDS011;38460;53.106;7.004;2024-02-26T04:32:25;9.15;;;6.47;;
52564;SDS011;38460;53.106;7.004;2024-02-26T04:34:50;9.32;;;6.80;;
52564;SDS011;38460;53.106;7.004;2024-02-26T04:37:16;11.82;;;7.03;;
52564;SDS011;38460;53.106;7.004;2024-02-26T04:39:42;12.02;;;7.00;;
52564;SDS011;38460;53.106;7.004;2024-02-26T04:42:08;9.77;;;6.20;;
52564;SDS011;38460;53.106;7.004;2024-02-26T04:44:34;8.68;;;6.20;;
52564;SDS011;38460;53.106;7.004;2024-02-26T04:46:59;9.13;;;5.63;;
52564;SDS011;38460;53.106;7.004;2024-02-26T04:49:26;13.00;;;6.30;;
52564;SDS011;38460;53.106;7.004;2024-02-26T04:51:52;9.82;;;5.32;;
52564;SDS011;38460;53.106;7.004;2024-02-26T04:54:19;9.88;;;5.82;;
52564;SDS011;38460;53.106;7.004;2024-02-26T04:56:45;9.07;;;5.40;;
52564;SDS011;38460;53.106;7.004;2024-02-26T04:59:11;8.48;;;5.20;;
52564;SDS011;38460;53.106;7.004;2024-02-26T05:01:37;7.75;;;5.53;;
52564;SDS011;38460;53.106;7.004;2024-02-26T05:04:03;8.55;;;5.18;;
52564;SDS011;38460;53.106;7.004;2024-02-26T05:06:29;8.55;;;5.18;;
52564;SDS011;38460;53.106;7.004;2024-02-26T05:08:54;9.80;;;5.90;;
52564;SDS011;38460;53.106;7.004;2024-02-26T05:11:20;9.48;;;5.60;;
52564;SDS011;38460;53.106;7.004;2024-02-26T05:13:47;7.22;;;5.57;;
52564;SDS011;38460;53.106;7.004;2024-02-26T05:16:13;7.93;;;4.85;;
52564;SDS011;38460;53.106;7.004;2024-02-26T05:18:39;10.00;;;5.30;;
52564;SDS011;38460;53.106;7.004;2024-02-26T05:21:04;8.80;;;4.70;;
52564;SDS011;38460;53.106;7.004;2024-02-26T05:23:30;8.40;;;5.25;;
52564;SDS011;38460;53.106;7.004;2024-02-26T05:25:56;8.15;;;5.60;;
52564;SDS011;38460;53.106;7.004;2024-02-26T05:28:22;7.97;;;5.07;;
52564;SDS011;38460;53.106;7.004;2024-02-26T05:30:48;7.93;;;5.18;;
52564;SDS011;38460;53.106;7.004;2024-02-26T05:33:13;9.70;;;5.45;;
52564;SDS011;38460;53.106;7.004;2024-02-26T05:35:39;8.23;;;5.85;;
52564;SDS011;38460;53.106;7.004;2024-02-26T05:38:05;10.93;;;5.38;;
52564;SDS011;38460;53.106;7.004;2024-02-26T05:40:31;9.23;;;5.60;;
52564;SDS011;38460;53.106;7.004;2024-02-26T05:42:57;7.70;;;4.97;;
52564;SDS011;38460;53.106;7.004;2024-02-26T05:45:22;8.55;;;5.13;;
52564;SDS011;38460;53.106;7.004;2024-02-26T05:47:48;8.05;;;5.03;;
52564;SDS011;38460;53.106;7.004;2024-02-26T05:50:15;8.38;;;4.75;;
52564;SDS011;38460;53.106;7.004;2024-02-26T05:52:41;9.68;;;5.10;;
52564;SDS011;38460;53.106;7.004;2024-02-26T05:55:07;9.40;;;5.30;;
52564;SDS011;38460;53.106;7.004;2024-02-26T05:57:33;12.10;;;5.85;;
52564;SDS011;38460;53.106;7.004;2024-02-26T05:59:59;7.05;;;4.28;;
52564;SDS011;38460;53.106;7.004;2024-02-26T06:02:29;12.00;;;5.07;;
52564;SDS011;38460;53.106;7.004;2024-02-26T06:04:55;6.55;;;4.40;;
52564;SDS011;38460;53.106;7.004;2024-02-26T06:07:21;7.60;;;4.38;;
52564;SDS011;38460;53.106;7.004;2024-02-26T06:09:47;7.22;;;4.72;;
52564;SDS011;38460;53.106;7.004;2024-02-26T06:12:13;10.88;;;5.40;;
52564;SDS011;38460;53.106;7.004;2024-02-26T06:14:39;8.52;;;4.82;;
52564;SDS011;38460;53.106;7.004;2024-02-26T06:17:05;6.05;;;4.30;;
52564;SDS011;38460;53.106;7.004;2024-02-26T06:19:32;8.10;;;4.93;;
52564;SDS011;38460;53.106;7.004;2024-02-26T06:21:58;7.60;;;5.13;;
52564;SDS011;38460;53.106;7.004;2024-02-26T06:24:23;5.90;;;4.10;;
52564;SDS011;38460;53.106;7.004;2024-02-26T06:26:49;7.78;;;4.45;;
52564;SDS011;38460;53.106;7.004;2024-02-26T06:29:15;6.13;;;4.20;;
52564;SDS011;38460;53.106;7.004;2024-02-26T06:31:40;7.60;;;4.15;;
52564;SDS011;38460;53.106;7.004;2024-02-26T06:34:06;6.13;;;4.18;;
52564;SDS011;38460;53.106;7.004;2024-02-26T06:36:32;5.57;;;3.72;;
52564;SDS011;38460;53.106;7.004;2024-02-26T06:38:58;6.85;;;4.40;;
52564;SDS011;38460;53.106;7.004;2024-02-26T06:41:24;5.70;;;4.25;;
52564;SDS011;38460;53.106;7.004;2024-02-26T06:43:53;6.20;;;4.18;;
52564;SDS011;38460;53.106;7.004;2024-02-26T06:46:19;7.10;;;4.50;;
52564;SDS011;38460;53.106;7.004;2024-02-26T06:48:45;6.93;;;4.50;;
52564;SDS011;38460;53.106;7.004;2024-02-26T06:51:11;7.47;;;4.32;;
52564;SDS011;38460;53.106;7.004;2024-02-26T06:53:36;5.78;;;4.30;;
52564;SDS011;38460;53.106;7.004;2024-02-26T06:56:02;7.82;;;4.40;;
52564;SDS011;38460;53.106;7.004;2024-02-26T06:58:28;6.15;;;4.28;;
52564;SDS011;38460;53.106;7.004;2024-02-26T07:00:54;7.68;;;4.68;;
52564;SDS011;38460;53.106;7.004;2024-02-26T07:03:19;8.02;;;4.50;;
52564;SDS011;38460;53.106;7.004;2024-02-26T07:05:45;7.70;;;5.18;;
52564;SDS011;38460;53.106;7.004;2024-02-26T07:08:11;7.38;;;4.43;;
52564;SDS011;38460;53.106;7.004;2024-02-26T07:10:37;9.20;;;4.50;;
52564;SDS011;38460;53.106;7.004;2024-02-26T07:13:02;6.35;;;4.05;;
52564;SDS011;38460;53.106;7.004;2024-02-26T07:15:28;7.55;;;4.32;;
52564;SDS011;38460;53.106;7.004;2024-02-26T07:17:54;5.57;;;4.05;;
52564;SDS011;38460;53.106;7.004;2024-02-26T07:20:20;7.97;;;5.10;;
52564;SDS011;38460;53.106;7.004;2024-02-26T07:22:45;5.88;;;4.13;;
52564;SDS011;38460;53.106;7.004;2024-02-26T07:25:11;6.65;;;4.13;;
52564;SDS011;38460;53.106;7.004;2024-02-26T07:27:39;6.30;;;4.50;;
52564;SDS011;38460;53.106;7.004;2024-02-26T07:30:06;6.93;;;4.38;;
52564;SDS011;38460;53.106;7.004;2024-02-26T07:32:33;6.55;;;4.45;;
52564;SDS011;38460;53.106;7.004;2024-02-26T07:34:59;8.32;;;4.78;;
52564;SDS011;38460;53.106;7.004;2024-02-26T07:37:25;6.43;;;4.72;;
52564;SDS011;38460;53.106;7.004;2024-02-26T07:39:50;9.82;;;4.82;;
52564;SDS011;38460;53.106;7.004;2024-02-26T07:42:16;7.10;;;4.82;;
52564;SDS011;38460;53.106;7.004;2024-02-26T07:44:42;7.13;;;4.60;;
52564;SDS011;38460;53.106;7.004;2024-02-26T07:47:11;7.28;;;4.90;;
52564;SDS011;38460;53.106;7.004;2024-02-26T07:49:37;7.75;;;5.32;;
52564;SDS011;38460;53.106;7.004;2024-02-26T07:52:03;6.47;;;4.78;;
52564;SDS011;38460;53.106;7.004;2024-02-26T07:54:29;6.80;;;4.63;;
52564;SDS011;38460;53.106;7.004;2024-02-26T07:56:54;6.45;;;4.93;;
52564;SDS011;38460;53.106;7.004;2024-02-26T07:59:20;6.15;;;4.82;;
52564;SDS011;38460;53.106;7.004;2024-02-26T08:01:49;7.70;;;5.28;;
52564;SDS011;38460;53.106;7.004;2024-02-26T08:04:18;5.72;;;4.18;;
52564;SDS011;38460;53.106;7.004;2024-02-26T08:06:44;7.25;;;4.57;;
52564;SDS011;38460;53.106;7.004;2024-02-26T08:09:09;7.30;;;5.32;;
52564;SDS011;38460;53.106;7.004;2024-02-26T08:11:37;7.63;;;5.30;;
52564;SDS011;38460;53.106;7.004;2024-02-26T08:14:03;6.82;;;4.90;;
52564;SDS011;38460;53.106;7.004;2024-02-26T08:16:29;6.30;;;4.28;;
52564;SDS011;38460;53.106;7.004;2024-02-26T08:18:55;6.75;;;4.78;;
52564;SDS011;38460;53.106;7.004;2024-02-26T08:21:21;6.40;;;4.63;;
52564;SDS011;38460;53.106;7.004;2024-02-26T08:23:47;6.55;;;4.70;;
52564;SDS011;38460;53.106;7.004;2024-02-26T08:26:12;7.18;;;4.95;;
52564;SDS011;38460;53.106;7.004;2024-02-26T08:28:38;8.40;;;5.38;;
52564;SDS011;38460;53.106;7.004;2024-02-26T08:31:04;7.50;;;4.78;;
52564;SDS011;38460;53.106;7.004;2024-02-26T08:33:30;6.55;;;4.68;;
52564;SDS011;38460;53.106;7.004;2024-02-26T08:35:55;6.18;;;4.72;;
52564;SDS011;38460;53.106;7.004;2024-02-26T08:38:21;7.03;;;5.22;;
52564;SDS011;38460;53.106;7.004;2024-02-26T08:40:48;6.22;;;4.63;;
52564;SDS011;38460;53.106;7.004;2024-02-26T08:43:14;6.15;;;4.50;;
52564;SDS011;38460;53.106;7.004;2024-02-26T08:45:40;7.68;;;4.07;;
52564;SDS011;38460;53.106;7.004;2024-02-26T08:48:06;6.57;;;4.68;;
52564;SDS011;38460;53.106;7.004;2024-02-26T08:50:32;9.73;;;4.90;;
52564;SDS011;38460;53.106;7.004;2024-02-26T08:52:58;7.82;;;5.00;;
52564;SDS011;38460;53.106;7.004;2024-02-26T08:55:26;9.32;;;4.90;;
52564;SDS011;38460;53.106;7.004;2024-02-26T08:57:52;8.82;;;5.43;;
52564;SDS011;38460;53.106;7.004;2024-02-26T09:00:17;6.22;;;4.90;;
52564;SDS011;38460;53.106;7.004;2024-02-26T09:02:45;7.43;;;5.45;;
52564;SDS011;38460;53.106;7.004;2024-02-26T09:05:14;6.70;;;4.55;;
52564;SDS011;38460;53.106;7.004;2024-02-26T09:07:40;8.65;;;5.07;;
52564;SDS011;38460;53.106;7.004;2024-02-26T09:10:06;5.78;;;4.50;;
52564;SDS011;38460;53.106;7.004;2024-02-26T09:12:36;7.03;;;4.53;;
52564;SDS011;38460;53.106;7.004;2024-02-26T09:15:03;6.93;;;4.97;;
52564;SDS011;38460;53.106;7.004;2024-02-26T09:17:30;9.00;;;5.50;;
52564;SDS011;38460;53.106;7.004;2024-02-26T09:19:56;6.78;;;4.47;;
52564;SDS011;38460;53.106;7.004;2024-02-26T09:22:21;8.13;;;4.65;;
52564;SDS011;38460;53.106;7.004;2024-02-26T09:24:47;6.20;;;4.53;;
52564;SDS011;38460;53.106;7.004;2024-02-26T09:27:15;7.50;;;4.78;;
52564;SDS011;38460;53.106;7.004;2024-02-26T09:29:41;7.50;;;5.10;;
52564;SDS011;38460;53.106;7.004;2024-02-26T09:32:07;8.38;;;5.13;;
52564;SDS011;38460;53.106;7.004;2024-02-26T09:34:33;9.45;;;5.28;;
52564;SDS011;38460;53.106;7.004;2024-02-26T09:36:59;7.13;;;5.22;;
52564;SDS011;38460;53.106;7.004;2024-02-26T09:39:26;7.47;;;4.97;;
52564;SDS011;38460;53.106;7.004;2024-02-26T09:41:53;7.43;;;4.95;;
52564;SDS011;38460;53.106;7.004;2024-02-26T09:44:19;7.68;;;4.82;;
52564;SDS011;38460;53.106;7.004;2024-02-26T09:46:47;8.93;;;5.40;;
52564;SDS011;38460;53.106;7.004;2024-02-26T09:49:16;7.90;;;5.45;;
52564;SDS011;38460;53.106;7.004;2024-02-26T09:51:43;7.65;;;4.50;;
52564;SDS011;38460;53.106;7.004;2024-02-26T09:54:09;8.90;;;5.60;;
52564;SDS011;38460;53.106;7.004;2024-02-26T09:56:36;8.73;;;5.93;;
52564;SDS011;38460;53.106;7.004;2024-02-26T09:59:10;8.45;;;5.95;;
52564;SDS011;38460;53.106;7.004;2024-02-26T10:01:38;7.80;;;5.22;;
52564;SDS011;38460;53.106;7.004;2024-02-26T10:04:08;7.18;;;5.22;;
52564;SDS011;38460;53.106;7.004;2024-02-26T10:06:36;7.97;;;5.25;;
52564;SDS011;38460;53.106;7.004;2024-02-26T10:09:02;7.63;;;5.00;;
52564;SDS011;38460;53.106;7.004;2024-02-26T10:11:31;8.10;;;5.35;;
52564;SDS011;38460;53.106;7.004;2024-02-26T10:13:58;7.88;;;4.88;;
52564;SDS011;38460;53.106;7.004;2024-02-26T10:16:24;10.07;;;5.13;;
52564;SDS011;38460;53.106;7.004;2024-02-26T10:18:51;9.63;;;4.82;;
52564;SDS011;38460;53.106;7.004;2024-02-26T10:21:20;6.97;;;4.57;;
52564;SDS011;38460;53.106;7.004;2024-02-26T10:23:46;8.95;;;5.10;;
52564;SDS011;38460;53.106;7.004;2024-02-26T10:26:13;6.55;;;5.13;;
52564;SDS011;38460;53.106;7.004;2024-02-26T10:28:41;7.47;;;4.45;;
52564;SDS011;38460;53.106;7.004;2024-02-26T10:31:08;6.88;;;4.82;;
52564;SDS011;38460;53.106;7.004;2024-02-26T10:33:34;6.90;;;4.60;;
52564;SDS011;38460;53.106;7.004;2024-02-26T10:36:02;6.35;;;4.60;;
52564;SDS011;38460;53.106;7.004;2024-02-26T10:38:34;6.35;;;4.35;;
52564;SDS011;38460;53.106;7.004;2024-02-26T10:41:02;6.45;;;4.30;;
52564;SDS011;38460;53.106;7.004;2024-02-26T10:43:28;6.68;;;4.32;;
52564;SDS011;38460;53.106;7.004;2024-02-26T10:45:54;6.85;;;3.65;;
52564;SDS011;38460;53.106;7.004;2024-02-26T10:48:21;7.75;;;5.65;;
52564;SDS011;38460;53.106;7.004;2024-02-26T10:50:47;7.82;;;4.72;;
52564;SDS011;38460;53.106;7.004;2024-02-26T10:53:16;7.57;;;4.13;;
52564;SDS011;38460;53.106;7.004;2024-02-26T10:55:57;6.70;;;4.13;;
52564;SDS011;38460;53.106;7.004;2024-02-26T10:58:26;6.25;;;3.78;;
52564;SDS011;38460;53.106;7.004;2024-02-26T11:00:53;6.30;;;4.30;;
52564;SDS011;38460;53.106;7.004;2024-02-26T11:03:22;6.93;;;4.80;;
52564;SDS011;38460;53.106;7.004;2024-02-26T11:05:49;6.70;;;3.85;;
52564;SDS011;38460;53.106;7.004;2024-02-26T11:08:16;6.05;;;3.90;;
52564;SDS011;38460;53.106;7.004;2024-02-26T11:10:46;6.53;;;4.00;;
52564;SDS011;38460;53.106;7.004;2024-02-26T11:13:14;8.77;;;4.55;;
52564;SDS011;38460;53.106;7.004;2024-02-26T11:15:44;6.63;;;3.95;;
52564;SDS011;38460;53.106;7.004;2024-02-26T11:18:13;6.10;;;4.10;;
52564;SDS011;38460;53.106;7.004;2024-02-26T11:20:41;5.70;;;4.07;;
52564;SDS011;38460;53.106;7.004;2024-02-26T11:23:07;5.78;;;4.40;;
52564;SDS011;38460;53.106;7.004;2024-02-26T11:25:34;7.00;;;3.72;;
52564;SDS011;38460;53.106;7.004;2024-02-26T11:28:03;6.38;;;4.45;;
52564;SDS011;38460;53.106;7.004;2024-02-26T11:30:32;5.70;;;3.75;;
52564;SDS011;38460;53.106;7.004;2024-02-26T11:33:00;6.13;;;4.13;;
52564;SDS011;38460;53.106;7.004;2024-02-26T11:35:26;10.68;;;5.80;;
52564;SDS011;38460;53.106;7.004;2024-02-26T11:37:54;7.20;;;4.53;;
52564;SDS011;38460;53.106;7.004;2024-02-26T11:40:24;6.72;;;4.25;;
52564;SDS011;38460;53.106;7.004;2024-02-26T11:48:13;7.85;;;4.70;;
52564;SDS011;38460;53.106;7.004;2024-02-26T11:50:47;5.20;;;4.07;;
52564;SDS011;38460;53.106;7.004;2024-02-26T11:53:26;6.65;;;4.00;;
52564;SDS011;38460;53.106;7.004;2024-02-26T11:58:42;6.25;;;4.35;;
52564;SDS011;38460;53.106;7.004;2024-02-26T12:04:20;5.70;;;4.10;;
52564;SDS011;38460;53.106;7.004;2024-02-26T12:06:51;6.40;;;3.90;;
52564;SDS011;38460;53.106;7.004;2024-02-26T12:12:05;6.35;;;4.20;;
52564;SDS011;38460;53.106;7.004;2024-02-26T12:14:33;7.20;;;4.80;;
52564;SDS011;38460;53.106;7.004;2024-02-26T12:17:00;8.85;;;4.93;;
52564;SDS011;38460;53.106;7.004;2024-02-26T12:19:26;6.95;;;4.68;;
52564;SDS011;38460;53.106;7.004;2024-02-26T12:21:53;9.45;;;5.28;;
52564;SDS011;38460;53.106;7.004;2024-02-26T12:24:22;6.97;;;4.72;;
52564;SDS011;38460;53.106;7.004;2024-02-26T12:26:47;6.30;;;4.22;;
52564;SDS011;38460;53.106;7.004;2024-02-26T12:29:13;7.47;;;4.72;;
52564;SDS011;38460;53.106;7.004;2024-02-26T12:31:40;8.85;;;5.60;;
52564;SDS011;38460;53.106;7.004;2024-02-26T12:34:06;8.85;;;5.07;;
52564;SDS011;38460;53.106;7.004;2024-02-26T12:36:35;8.68;;;5.07;;
52564;SDS011;38460;53.106;7.004;2024-02-26T12:39:04;8.32;;;5.63;;
52564;SDS011;38460;53.106;7.004;2024-02-26T12:41:34;8.50;;;5.05;;
52564;SDS011;38460;53.106;7.004;2024-02-26T12:44:00;10.48;;;6.38;;
52564;SDS011;38460;53.106;7.004;2024-02-26T12:46:27;9.68;;;5.68;;
52564;SDS011;38460;53.106;7.004;2024-02-26T12:48:54;9.88;;;6.93;;
52564;SDS011;38460;53.106;7.004;2024-02-26T12:51:23;9.35;;;5.72;;
52564;SDS011;38460;53.106;7.004;2024-02-26T12:53:50;9.30;;;5.50;;
52564;SDS011;38460;53.106;7.004;2024-02-26T12:56:17;10.65;;;6.75;;
52564;SDS011;38460;53.106;7.004;2024-02-26T12:58:43;8.35;;;5.57;;
52564;SDS011;38460;53.106;7.004;2024-02-26T13:01:13;10.73;;;5.82;;
52564;SDS011;38460;53.106;7.004;2024-02-26T13:03:42;8.45;;;5.68;;
52564;SDS011;38460;53.106;7.004;2024-02-26T13:06:08;9.27;;;5.85;;
52564;SDS011;38460;53.106;7.004;2024-02-26T13:08:34;10.10;;;5.82;;
52564;SDS011;38460;53.106;7.004;2024-02-26T13:11:00;9.95;;;6.15;;
52564;SDS011;38460;53.106;7.004;2024-02-26T13:13:26;9.60;;;6.13;;
52564;SDS011;38460;53.106;7.004;2024-02-26T13:16:01;9.32;;;5.88;;
52564;SDS011;38460;53.106;7.004;2024-02-26T13:18:29;9.65;;;6.18;;
52564;SDS011;38460;53.106;7.004;2024-02-26T13:21:07;9.48;;;6.00;;
52564;SDS011;38460;53.106;7.004;2024-02-26T13:23:34;8.57;;;5.35;;
52564;SDS011;38460;53.106;7.004;2024-02-26T13:26:00;12.95;;;6.88;;
52564;SDS011;38460;53.106;7.004;2024-02-26T13:28:25;10.68;;;6.60;;
52564;SDS011;38460;53.106;7.004;2024-02-26T13:30:53;9.90;;;6.22;;
52564;SDS011;38460;53.106;7.004;2024-02-26T13:33:26;11.75;;;6.65;;
52564;SDS011;38460;53.106;7.004;2024-02-26T13:35:53;14.25;;;7.20;;
52564;SDS011;38460;53.106;7.004;2024-02-26T13:38:23;12.05;;;7.30;;
52564;SDS011;38460;53.106;7.004;2024-02-26T13:40:49;9.75;;;6.15;;
52564;SDS011;38460;53.106;7.004;2024-02-26T13:43:15;11.15;;;7.18;;
52564;SDS011;38460;53.106;7.004;2024-02-26T13:45:41;10.55;;;6.50;;
52564;SDS011;38460;53.106;7.004;2024-02-26T13:48:09;10.05;;;6.82;;
52564;SDS011;38460;53.106;7.004;2024-02-26T13:50:36;10.30;;;6.50;;
52564;SDS011;38460;53.106;7.004;2024-02-26T13:53:05;10.73;;;6.40;;
52564;SDS011;38460;53.106;7.004;2024-02-26T13:55:31;13.00;;;7.68;;
52564;SDS011;38460;53.106;7.004;2024-02-26T13:57:58;13.45;;;7.95;;
52564;SDS011;38460;53.106;7.004;2024-02-26T14:00:26;13.23;;;7.93;;
52564;SDS011;38460;53.106;7.004;2024-02-26T14:02:53;12.25;;;7.28;;
52564;SDS011;38460;53.106;7.004;2024-02-26T14:05:18;14.82;;;7.82;;
52564;SDS011;38460;53.106;7.004;2024-02-26T14:07:45;15.32;;;8.68;;
52564;SDS011;38460;53.106;7.004;2024-02-26T14:10:11;11.85;;;7.70;;
52564;SDS011;38460;53.106;7.004;2024-02-26T14:12:38;15.68;;;8.32;;
52564;SDS011;38460;53.106;7.004;2024-02-26T14:15:05;13.70;;;7.88;;
52564;SDS011;38460;53.106;7.004;2024-02-26T14:17:32;12.05;;;7.47;;
52564;SDS011;38460;53.106;7.004;2024-02-26T14:19:58;14.68;;;8.18;;
52564;SDS011;38460;53.106;7.004;2024-02-26T14:22:24;13.00;;;7.22;;
52564;SDS011;38460;53.106;7.004;2024-02-26T14:24:52;12.43;;;7.70;;
52564;SDS011;38460;53.106;7.004;2024-02-26T14:27:18;13.93;;;7.93;;
52564;SDS011;38460;53.106;7.004;2024-02-26T14:29:47;12.52;;;8.15;;
52564;SDS011;38460;53.106;7.004;2024-02-26T14:32:13;14.23;;;7.40;;
52564;SDS011;38460;53.106;7.004;2024-02-26T14:34:39;11.73;;;7.38;;
52564;SDS011;38460;53.106;7.004;2024-02-26T14:37:05;12.90;;;7.30;;
52564;SDS011;38460;53.106;7.004;2024-02-26T14:39:31;11.90;;;7.50;;
52564;SDS011;38460;53.106;7.004;2024-02-26T14:41:57;12.10;;;7.32;;
52564;SDS011;38460;53.106;7.004;2024-02-26T14:44:24;15.85;;;8.23;;
52564;SDS011;38460;53.106;7.004;2024-02-26T14:46:50;12.95;;;8.10;;
52564;SDS011;38460;53.106;7.004;2024-02-26T14:49:16;11.98;;;7.38;;